createdAt,value
2022-10-08T00:00:22.790Z,17.03
2022-10-08T00:04:05.510Z,18.47
2022-10-08T00:07:48.260Z,17.27
2022-10-08T00:11:32.751Z,17.33
2022-10-08T00:15:15.640Z,16.43
2022-10-08T00:19:02.174Z,18.00
2022-10-08T00:22:45.201Z,17.23
2022-10-08T00:26:29.529Z,16.67
2022-10-08T00:30:13.694Z,18.83
2022-10-08T00:33:58.535Z,17.57
2022-10-08T00:37:42.599Z,20.03
2022-10-08T00:41:27.482Z,19.87
2022-10-08T00:45:13.248Z,21.77
2022-10-08T00:49:03.590Z,19.90
2022-10-08T00:52:49.989Z,21.93
2022-10-08T00:56:35.332Z,19.27
2022-10-08T01:00:22.188Z,23.77
2022-10-08T01:04:10.657Z,23.50
2022-10-08T01:07:59.769Z,21.23
2022-10-08T01:11:48.410Z,20.70
2022-10-08T01:15:36.334Z,21.13
2022-10-08T01:19:38.320Z,20.60
2022-10-08T01:23:40.800Z,18.57
2022-10-08T01:27:29.787Z,19.23
2022-10-08T01:31:16.225Z,18.40
2022-10-08T01:35:01.389Z,16.50
2022-10-08T01:38:47.512Z,20.93
2022-10-08T01:42:33.613Z,18.97
2022-10-08T01:46:20.120Z,17.57
2022-10-08T01:50:06.387Z,16.43
2022-10-08T01:53:50.880Z,17.17
2022-10-08T01:57:35.262Z,16.57
2022-10-08T02:01:23.578Z,17.17
2022-10-08T02:05:06.668Z,16.13
2022-10-08T02:08:50.665Z,14.73
2022-10-08T02:12:34.990Z,16.03
2022-10-08T02:16:22.656Z,14.83
2022-10-08T02:20:11.197Z,13.57
2022-10-08T02:23:57.837Z,14.83
2022-10-08T02:27:55.352Z,13.17
2022-10-08T02:31:42.014Z,13.77
2022-10-08T02:35:26.979Z,12.27
2022-10-08T02:39:11.471Z,12.83
2022-10-08T02:42:59.194Z,11.77
2022-10-08T02:46:43.175Z,11.50
2022-10-08T02:50:27.123Z,13.20
2022-10-08T02:54:10.432Z,12.93
2022-10-08T02:58:00.436Z,15.20
2022-10-08T03:01:46.614Z,11.43
2022-10-08T03:05:30.031Z,11.47
2022-10-08T03:09:14.492Z,12.73
2022-10-08T03:13:01.886Z,10.33
2022-10-08T03:16:46.090Z,12.77
2022-10-08T03:20:30.974Z,10.37
2022-10-08T03:24:15.194Z,11.37
2022-10-08T03:27:57.861Z,10.63
2022-10-08T03:31:41.912Z,11.50
2022-10-08T03:35:24.623Z,10.17
2022-10-08T03:39:07.274Z,10.03
2022-10-08T03:42:50.105Z,9.40
2022-10-08T03:46:32.854Z,10.30
2022-10-08T03:50:17.081Z,10.13
2022-10-08T03:53:59.759Z,8.63
2022-10-08T03:57:42.502Z,9.57
2022-10-08T04:01:26.669Z,8.20
2022-10-08T04:05:09.994Z,10.40
2022-10-08T04:09:00.731Z,8.67
2022-10-08T04:12:43.413Z,8.27
2022-10-08T04:16:26.097Z,9.13
2022-10-08T04:20:09.518Z,8.80
2022-10-08T04:23:52.173Z,11.33
2022-10-08T04:27:36.343Z,8.00
2022-10-08T04:31:21.702Z,9.17
2022-10-08T04:35:04.954Z,9.30
2022-10-08T04:38:48.059Z,9.30
2022-10-08T04:42:30.773Z,7.70
2022-10-08T04:46:16.806Z,9.07
2022-10-08T04:49:59.567Z,9.73
2022-10-08T04:53:42.579Z,10.20
2022-10-08T04:57:25.469Z,7.60
2022-10-08T05:01:09.310Z,10.63
2022-10-08T05:04:53.316Z,9.77
2022-10-08T05:08:36.591Z,8.17
2022-10-08T05:12:19.271Z,9.23
2022-10-08T05:16:05.335Z,6.10
2022-10-08T05:19:48.084Z,8.43
2022-10-08T05:23:32.203Z,9.47
2022-10-08T05:27:14.845Z,10.23
2022-10-08T05:31:01.248Z,9.07
2022-10-08T05:34:44.038Z,8.97
2022-10-08T05:38:30.272Z,8.60
2022-10-08T05:42:16.839Z,11.80
2022-10-08T05:45:59.563Z,6.93
2022-10-08T05:49:42.242Z,9.00
2022-10-08T05:53:24.900Z,8.23
2022-10-08T05:57:07.635Z,7.27
2022-10-08T06:00:59.328Z,10.03
2022-10-08T06:04:44.898Z,7.90
2022-10-08T06:08:27.573Z,8.87
2022-10-08T06:12:10.368Z,7.47
2022-10-08T06:15:58.235Z,10.53
2022-10-08T06:19:41.013Z,7.40
2022-10-08T06:23:24.490Z,9.37
2022-10-08T06:27:07.165Z,10.10
2022-10-08T06:30:49.850Z,12.23
2022-10-08T06:34:33.922Z,9.27
2022-10-08T06:38:16.551Z,14.07
2022-10-08T06:41:59.428Z,10.77
2022-10-08T06:45:45.240Z,12.60
2022-10-08T06:49:27.940Z,9.63
2022-10-08T06:53:12.194Z,8.73
2022-10-08T06:56:55.742Z,9.87
2022-10-08T07:00:38.992Z,12.23
2022-10-08T07:04:21.998Z,10.67
2022-10-08T07:08:04.658Z,10.23
2022-10-08T07:11:48.731Z,8.63
2022-10-08T07:15:32.671Z,8.43
2022-10-08T07:19:15.517Z,10.07
2022-10-08T07:22:58.238Z,7.70
2022-10-08T07:26:41.318Z,8.83
2022-10-08T07:30:25.505Z,7.97
2022-10-08T07:34:09.604Z,8.53
2022-10-08T07:37:52.410Z,7.93
2022-10-08T07:41:35.829Z,8.53
2022-10-08T07:45:18.913Z,7.77
2022-10-08T07:49:03.408Z,9.27
2022-10-08T07:52:46.413Z,11.43
2022-10-08T07:56:29.295Z,8.93
2022-10-08T08:00:12.831Z,9.60
2022-10-08T08:03:56.627Z,10.93
2022-10-08T08:07:40.688Z,7.30
2022-10-08T08:11:24.933Z,7.67
2022-10-08T08:15:08.721Z,8.80
2022-10-08T08:18:53.797Z,10.77
2022-10-08T08:22:36.465Z,9.80
2022-10-08T08:26:21.668Z,9.10
2022-10-08T08:30:04.801Z,9.27
2022-10-08T08:33:50.892Z,7.83
2022-10-08T08:37:33.513Z,9.70
2022-10-08T08:41:27.081Z,11.97
2022-10-08T08:45:45.489Z,13.30
2022-10-08T08:49:29.656Z,6.80
2022-10-08T08:53:13.000Z,9.63
2022-10-08T08:56:57.059Z,8.53
2022-10-08T09:00:42.013Z,8.80
2022-10-08T09:04:27.995Z,6.67
2022-10-08T09:08:15.499Z,8.50
2022-10-08T09:11:59.538Z,7.57
2022-10-08T09:15:43.172Z,7.47
2022-10-08T09:19:26.128Z,11.50
2022-10-08T09:23:14.829Z,8.90
2022-10-08T09:26:59.215Z,9.97
2022-10-08T09:30:45.040Z,7.93
2022-10-08T09:34:28.258Z,9.10
2022-10-08T09:38:20.265Z,13.53
2022-10-08T09:42:14.831Z,11.37
2022-10-08T09:45:58.007Z,12.63
2022-10-08T09:49:40.828Z,44.63
2022-10-08T09:53:26.299Z,11.80
2022-10-08T09:57:09.442Z,14.00
2022-10-08T10:01:03.748Z,11.43
2022-10-08T10:04:46.579Z,10.73
2022-10-08T10:08:48.443Z,11.27
2022-10-08T10:12:33.317Z,15.57
2022-10-08T10:16:21.317Z,11.83
2022-10-08T10:20:06.938Z,12.07
2022-10-08T10:23:52.148Z,9.73
2022-10-08T10:27:37.321Z,15.33
2022-10-08T10:31:24.569Z,14.70
2022-10-08T10:35:14.659Z,13.03
2022-10-08T10:39:05.769Z,7.70
2022-10-08T10:42:55.959Z,11.37
2022-10-08T10:46:42.971Z,11.63
2022-10-08T10:50:28.238Z,13.80
2022-10-08T10:54:22.369Z,14.47
2022-10-08T10:58:16.091Z,11.90
2022-10-08T11:02:10.328Z,9.13
2022-10-08T11:05:57.563Z,16.93
2022-10-08T11:09:44.915Z,10.83
2022-10-08T11:13:38.072Z,11.90
2022-10-08T11:17:39.357Z,11.93
2022-10-08T11:21:31.828Z,15.37
2022-10-08T11:25:31.735Z,9.87
2022-10-08T11:29:21.071Z,11.73
2022-10-08T11:33:05.752Z,11.93
2022-10-08T11:36:53.646Z,12.40
2022-10-08T11:40:38.507Z,15.73
2022-10-08T11:44:22.178Z,14.20
2022-10-08T11:48:34.620Z,16.00
2022-10-08T11:52:18.665Z,12.50
2022-10-08T11:56:01.931Z,12.37
2022-10-08T11:59:45.241Z,51.23
2022-10-08T12:03:30.293Z,17.17
2022-10-08T12:07:28.852Z,16.33
2022-10-08T12:11:49.095Z,18.90
2022-10-08T12:16:06.929Z,16.43
2022-10-08T12:20:21.332Z,18.53
2022-10-08T12:24:50.484Z,18.10
2022-10-08T12:28:54.609Z,10.27
2022-10-08T12:32:55.426Z,14.70
2022-10-08T12:37:16.317Z,12.90
2022-10-08T12:41:17.566Z,14.07
2022-10-08T12:45:07.696Z,11.20
2022-10-08T12:48:52.929Z,12.93
2022-10-08T12:52:36.334Z,13.60
2022-10-08T12:56:26.125Z,18.27
2022-10-08T13:00:10.951Z,15.63
2022-10-08T13:04:17.312Z,12.97
2022-10-08T13:08:01.631Z,19.23
2022-10-08T13:11:53.726Z,13.17
2022-10-08T13:15:38.376Z,14.63
2022-10-08T13:19:28.543Z,15.47
2022-10-08T13:23:25.501Z,16.27
2022-10-08T13:27:22.445Z,18.80
2022-10-08T13:31:21.659Z,17.27
2022-10-08T13:35:05.660Z,19.90
2022-10-08T13:38:48.427Z,18.93
2022-10-08T13:42:34.643Z,22.87
2022-10-08T13:46:17.453Z,22.63
2022-10-08T13:50:02.110Z,19.20
2022-10-08T13:53:45.764Z,20.57
2022-10-08T13:57:28.684Z,23.37
2022-10-08T14:01:12.878Z,22.53
2022-10-08T14:04:55.613Z,21.33
2022-10-08T14:08:38.451Z,20.53
2022-10-08T14:12:27.432Z,22.23
2022-10-08T14:16:12.472Z,19.23
2022-10-08T14:19:55.478Z,23.37
2022-10-08T14:23:39.092Z,25.60
2022-10-08T14:27:21.806Z,20.60
2022-10-08T14:31:04.585Z,26.17
2022-10-08T14:34:48.664Z,22.60
2022-10-08T14:38:33.607Z,22.53
2022-10-08T14:42:16.282Z,21.83
2022-10-08T14:45:59.684Z,25.20
2022-10-08T14:49:42.399Z,23.47
2022-10-08T14:53:26.725Z,21.00
2022-10-08T14:57:10.572Z,22.90
2022-10-08T15:00:54.361Z,17.83
2022-10-08T15:04:37.066Z,17.23
2022-10-08T15:08:19.899Z,17.13
2022-10-08T15:12:04.180Z,21.73
2022-10-08T15:15:47.016Z,21.67
2022-10-08T15:19:29.855Z,23.13
2022-10-08T15:23:12.681Z,21.13
2022-10-08T15:26:58.343Z,23.07
2022-10-08T15:30:43.476Z,21.27
2022-10-08T15:34:26.332Z,23.90
2022-10-08T15:38:09.242Z,18.80
2022-10-08T15:41:53.155Z,20.90
2022-10-08T15:45:43.883Z,25.10
2022-10-08T15:49:31.102Z,24.40
2022-10-08T15:53:14.084Z,26.93
2022-10-08T15:56:59.797Z,23.10
2022-10-08T16:00:43.944Z,25.90
2022-10-08T16:04:26.973Z,30.63
2022-10-08T16:08:10.111Z,27.77
2022-10-08T16:11:53.201Z,34.83
2022-10-08T16:15:38.738Z,30.53
2022-10-08T16:19:24.657Z,30.63
2022-10-08T16:23:08.050Z,27.17
2022-10-08T16:26:50.840Z,27.17
2022-10-08T16:30:35.898Z,26.43
2022-10-08T16:34:20.517Z,30.03
2022-10-08T16:38:04.819Z,25.87
2022-10-08T16:41:48.286Z,29.00
2022-10-08T16:45:31.031Z,29.67
2022-10-08T16:49:22.786Z,29.27
2022-10-08T16:53:09.446Z,27.93
2022-10-08T16:56:52.638Z,30.20
2022-10-08T17:00:38.049Z,26.83
2022-10-08T17:04:21.867Z,33.20
2022-10-08T17:08:04.708Z,85.57
2022-10-08T17:11:48.900Z,37.63
2022-10-08T17:15:31.668Z,29.87
2022-10-08T17:19:14.545Z,26.23
2022-10-08T17:23:09.938Z,25.23
2022-10-08T17:26:54.096Z,21.10
2022-10-08T17:30:37.661Z,20.13
2022-10-08T17:34:20.384Z,24.77
2022-10-08T17:38:20.792Z,19.73
2022-10-08T17:42:07.175Z,17.43
2022-10-08T17:45:50.387Z,19.27
2022-10-08T17:49:33.372Z,12.77
2022-10-08T17:53:17.854Z,18.50
2022-10-08T17:57:00.626Z,30.00
2022-10-08T18:00:44.784Z,17.97
2022-10-08T18:04:27.488Z,20.77
2022-10-08T18:08:27.713Z,17.77
2022-10-08T18:12:10.439Z,19.37
2022-10-08T18:15:54.666Z,16.17
2022-10-08T18:19:37.503Z,13.27
2022-10-08T18:23:39.105Z,16.20
2022-10-08T18:27:21.837Z,14.97
2022-10-08T18:31:07.160Z,14.80
2022-10-08T18:34:51.004Z,19.53
2022-10-08T18:38:44.705Z,19.27
2022-10-08T18:42:27.401Z,14.40
2022-10-08T18:46:11.629Z,18.53
2022-10-08T18:49:54.480Z,19.57
2022-10-08T18:53:54.301Z,18.63
2022-10-08T18:57:37.055Z,19.23
2022-10-08T19:01:23.149Z,18.43
2022-10-08T19:05:06.800Z,16.97
2022-10-08T19:09:05.497Z,22.33
2022-10-08T19:12:48.429Z,19.03
2022-10-08T19:16:32.832Z,12.47
2022-10-08T19:20:15.727Z,14.07
2022-10-08T19:24:02.144Z,14.50
2022-10-08T19:27:44.840Z,14.07
2022-10-08T19:31:30.915Z,18.47
2022-10-08T19:35:15.299Z,18.40
2022-10-08T19:39:15.887Z,21.90
2022-10-08T19:42:58.602Z,21.03
2022-10-08T19:46:41.660Z,19.67
2022-10-08T19:50:25.853Z,20.37
2022-10-08T19:54:16.939Z,19.83
2022-10-08T19:57:59.585Z,19.70
2022-10-08T20:01:43.556Z,20.63
2022-10-08T20:05:27.822Z,16.90
2022-10-08T20:09:25.107Z,21.07
2022-10-08T20:13:08.123Z,18.47
2022-10-08T20:16:50.892Z,25.30
2022-10-08T20:20:35.043Z,19.67
2022-10-08T20:24:35.614Z,20.90
2022-10-08T20:28:18.384Z,18.77
2022-10-08T20:32:01.558Z,20.33
2022-10-08T20:35:45.589Z,19.37
2022-10-08T20:39:48.127Z,19.83
2022-10-08T20:43:31.858Z,19.10
2022-10-08T20:47:17.703Z,21.33
2022-10-08T20:51:04.557Z,19.17
2022-10-08T20:54:47.374Z,19.70
2022-10-08T20:58:31.091Z,14.13
2022-10-08T21:02:18.915Z,15.13
2022-10-08T21:06:05.954Z,15.73
2022-10-08T21:09:57.728Z,12.57
2022-10-08T21:13:40.972Z,15.73
2022-10-08T21:17:23.698Z,17.40
2022-10-08T21:21:09.773Z,14.93
2022-10-08T21:24:52.521Z,18.40
2022-10-08T21:28:36.042Z,13.23
2022-10-08T21:32:19.209Z,14.80
2022-10-08T21:36:02.118Z,19.23
2022-10-08T21:39:59.037Z,14.73
2022-10-08T21:43:43.290Z,11.37
2022-10-08T21:47:26.310Z,10.10
2022-10-08T21:51:14.999Z,13.17
2022-10-08T21:55:13.362Z,12.70
2022-10-08T21:58:58.155Z,15.13
2022-10-08T22:02:40.893Z,14.67
2022-10-08T22:06:24.580Z,13.50
2022-10-08T22:10:26.238Z,13.13
2022-10-08T22:14:09.718Z,11.53
2022-10-08T22:17:52.463Z,12.13
2022-10-08T22:21:35.755Z,10.80
2022-10-08T22:25:18.474Z,14.03
2022-10-08T22:29:02.775Z,10.93
2022-10-08T22:32:45.852Z,11.40
2022-10-08T22:36:29.856Z,10.77
2022-10-08T22:40:31.259Z,9.30
2022-10-08T22:44:15.378Z,11.57
2022-10-08T22:47:58.811Z,11.23
2022-10-08T22:51:41.731Z,11.40
2022-10-08T22:55:43.427Z,11.23
2022-10-08T22:59:27.558Z,9.77
2022-10-08T23:03:10.256Z,10.70
2022-10-08T23:06:52.992Z,8.80
2022-10-08T23:10:44.980Z,11.67
2022-10-08T23:14:29.033Z,9.90
2022-10-08T23:18:11.737Z,10.20
2022-10-08T23:21:54.529Z,13.73
2022-10-08T23:25:40.556Z,11.47
2022-10-08T23:29:23.283Z,10.13
2022-10-08T23:33:07.402Z,11.47
2022-10-08T23:36:50.120Z,7.53
2022-10-08T23:40:58.722Z,10.97
2022-10-08T23:44:41.437Z,12.07
2022-10-08T23:48:27.914Z,9.57
2022-10-08T23:52:13.725Z,9.50
2022-10-08T23:56:06.045Z,6.97
2022-10-08T23:59:49.344Z,6.67
